createdAt,value
2018-02-12T00:01:53.985Z,87.70
2018-02-12T00:04:21.146Z,88.20
2018-02-12T00:06:47.746Z,88.20
2018-02-12T00:09:14.104Z,88.40
2018-02-12T00:11:40.713Z,88.80
2018-02-12T00:14:07.249Z,89.20
2018-02-12T00:16:33.614Z,88.80
2018-02-12T00:18:59.987Z,88.70
2018-02-12T00:21:26.353Z,88.60
2018-02-12T00:23:52.722Z,88.40
2018-02-12T00:26:19.091Z,88.30
2018-02-12T00:28:45.448Z,88.30
2018-02-12T00:31:11.807Z,88.60
2018-02-12T00:33:38.916Z,88.40
2018-02-12T00:36:05.290Z,88.50
2018-02-12T00:38:31.670Z,88.40
2018-02-12T00:40:58.046Z,88.20
2018-02-12T00:43:24.409Z,88.20
2018-02-12T00:45:51.519Z,88.40
2018-02-12T00:48:17.896Z,88.40
2018-02-12T00:50:44.256Z,88.40
2018-02-12T00:53:10.607Z,88.20
2018-02-12T00:55:37.041Z,88.00
2018-02-12T00:58:03.421Z,88.30
2018-02-12T01:00:30.517Z,88.40
2018-02-12T01:02:56.897Z,88.30
2018-02-12T01:05:24.015Z,87.50
2018-02-12T01:07:50.435Z,87.50
2018-02-12T01:10:16.804Z,87.40
2018-02-12T01:12:43.175Z,87.60
2018-02-12T01:15:09.625Z,87.70
2018-02-12T01:17:35.995Z,88.40
2018-02-12T01:20:03.097Z,89.10
2018-02-12T01:22:29.457Z,89.10
2018-02-12T01:24:55.815Z,88.80
2018-02-12T01:27:23.066Z,88.90
2018-02-12T01:29:49.451Z,88.90
2018-02-12T01:32:15.861Z,88.70
2018-02-12T01:34:42.247Z,88.60
2018-02-12T01:37:08.587Z,88.10
2018-02-12T01:39:35.677Z,88.00
2018-02-12T01:42:02.023Z,88.00
2018-02-12T01:44:28.378Z,87.80
2018-02-12T01:46:54.766Z,87.80
2018-02-12T01:49:21.121Z,87.80
2018-02-12T01:51:47.467Z,88.00
2018-02-12T01:54:13.816Z,87.80
2018-02-12T01:56:40.921Z,87.70
2018-02-12T01:59:07.294Z,87.70
2018-02-12T02:01:34.429Z,87.80
2018-02-12T02:04:00.799Z,87.80
2018-02-12T02:06:27.166Z,87.30
2018-02-12T02:08:53.598Z,87.20
2018-02-12T02:11:19.968Z,87.20
2018-02-12T02:13:47.082Z,87.30
2018-02-12T02:16:13.433Z,87.30
2018-02-12T02:18:39.790Z,87.20
2018-02-12T02:21:06.957Z,86.80
2018-02-12T02:23:33.317Z,86.80
2018-02-12T02:25:59.674Z,86.50
2018-02-12T02:28:26.076Z,86.90
2018-02-12T02:30:52.445Z,87.00
2018-02-12T02:33:18.807Z,86.90
2018-02-12T02:35:48.023Z,86.80
2018-02-12T02:38:14.378Z,86.60
2018-02-12T02:40:40.742Z,86.70
2018-02-12T02:43:07.107Z,86.70
2018-02-12T02:45:33.474Z,86.40
2018-02-12T02:47:59.831Z,86.30
2018-02-12T02:50:27.694Z,86.10
2018-02-12T02:52:54.059Z,86.00
2018-02-12T02:55:21.158Z,86.60
2018-02-12T02:57:47.527Z,86.70
2018-02-12T03:00:14.670Z,87.00
2018-02-12T03:02:41.789Z,87.30
2018-02-12T03:05:08.139Z,87.30
2018-02-12T03:07:34.497Z,87.30
2018-02-12T03:10:01.599Z,87.10
2018-02-12T03:12:27.981Z,87.10
2018-02-12T03:14:54.352Z,86.70
2018-02-12T03:17:20.733Z,87.00
2018-02-12T03:19:47.834Z,86.50
2018-02-12T03:22:14.198Z,86.50
2018-02-12T03:24:41.311Z,86.90
2018-02-12T03:27:07.804Z,86.50
2018-02-12T03:29:34.162Z,86.40
2018-02-12T03:32:00.669Z,86.50
2018-02-12T03:34:27.034Z,86.50
2018-02-12T03:36:53.405Z,86.40
2018-02-12T03:39:19.773Z,85.80
2018-02-12T03:41:46.126Z,85.40
2018-02-12T03:44:12.469Z,85.50
2018-02-12T03:46:38.890Z,86.10
2018-02-12T03:49:05.235Z,86.20
2018-02-12T03:51:31.602Z,85.90
2018-02-12T03:53:58.702Z,85.40
2018-02-12T03:56:25.050Z,85.30
2018-02-12T03:58:51.419Z,85.40
2018-02-12T04:01:18.608Z,85.10
2018-02-12T04:03:44.982Z,85.10
2018-02-12T04:06:11.330Z,84.90
2018-02-12T04:08:38.426Z,85.30
2018-02-12T04:11:04.816Z,85.30
2018-02-12T04:13:31.924Z,87.10
2018-02-12T04:15:58.293Z,87.10
2018-02-12T04:18:25.391Z,87.40
2018-02-12T04:20:51.751Z,87.30
2018-02-12T04:23:18.116Z,87.30
2018-02-12T04:25:45.221Z,87.20
2018-02-12T04:28:11.561Z,87.00
2018-02-12T04:30:37.928Z,87.20
2018-02-12T04:33:04.318Z,87.70
2018-02-12T04:35:30.783Z,87.90
2018-02-12T04:37:57.230Z,87.30
2018-02-12T04:40:23.589Z,86.80
2018-02-12T04:42:50.051Z,86.30
2018-02-12T04:45:16.403Z,86.10
2018-02-12T04:47:43.503Z,86.10
2018-02-12T04:50:09.871Z,86.10
2018-02-12T04:52:36.229Z,87.40
2018-02-12T04:55:03.346Z,88.20
2018-02-12T04:57:29.701Z,88.20
2018-02-12T04:59:56.803Z,87.50
2018-02-12T05:02:23.182Z,87.50
2018-02-12T05:04:50.282Z,87.60
2018-02-12T05:07:16.633Z,87.60
2018-02-12T05:09:43.086Z,88.00
2018-02-12T05:12:11.203Z,88.40
2018-02-12T05:14:37.645Z,88.40
2018-02-12T05:17:04.002Z,88.40
2018-02-12T05:19:30.370Z,88.60
2018-02-12T05:21:57.473Z,88.70
2018-02-12T05:24:23.850Z,88.60
2018-02-12T05:26:50.938Z,87.70
2018-02-12T05:29:17.298Z,87.70
2018-02-12T05:31:43.658Z,88.00
2018-02-12T05:34:10.051Z,87.90
2018-02-12T05:36:36.429Z,87.90
2018-02-12T05:39:02.878Z,87.70
2018-02-12T05:41:29.387Z,87.50
2018-02-12T05:43:55.752Z,87.00
2018-02-12T05:46:22.123Z,86.60
2018-02-12T05:48:48.490Z,86.70
2018-02-12T05:51:14.868Z,87.00
2018-02-12T05:53:41.227Z,87.10
2018-02-12T05:56:07.599Z,86.70
2018-02-12T05:58:33.979Z,86.50
2018-02-12T06:01:00.370Z,87.20
2018-02-12T06:03:26.783Z,86.60
2018-02-12T06:05:53.143Z,86.70
2018-02-12T06:08:19.539Z,86.50
2018-02-12T06:10:46.079Z,86.30
2018-02-12T06:13:12.444Z,86.20
2018-02-12T06:15:38.801Z,86.00
2018-02-12T06:18:05.219Z,86.10
2018-02-12T06:20:31.617Z,86.50
2018-02-12T06:22:57.980Z,86.30
2018-02-12T06:25:24.335Z,86.90
2018-02-12T06:27:50.726Z,86.40
2018-02-12T06:30:17.089Z,86.10
2018-02-12T06:32:44.184Z,86.10
2018-02-12T06:35:10.536Z,86.10
2018-02-12T06:37:36.915Z,86.20
2018-02-12T06:40:04.022Z,86.40
2018-02-12T06:42:30.431Z,86.40
2018-02-12T06:44:56.795Z,86.60
2018-02-12T06:47:23.140Z,86.70
2018-02-12T06:49:49.497Z,86.40
2018-02-12T06:52:16.587Z,86.70
2018-02-12T06:54:42.944Z,86.70
2018-02-12T06:57:09.375Z,87.10
2018-02-12T06:59:35.755Z,87.70
2018-02-12T07:02:02.906Z,86.90
2018-02-12T07:04:29.272Z,86.90
2018-02-12T07:06:55.642Z,87.60
2018-02-12T07:09:22.002Z,88.00
2018-02-12T07:11:48.392Z,88.20
2018-02-12T07:14:14.765Z,87.90
2018-02-12T07:16:41.120Z,88.00
2018-02-12T07:19:07.500Z,87.80
2018-02-12T07:21:34.610Z,88.20
2018-02-12T07:24:00.981Z,87.50
2018-02-12T07:26:27.341Z,87.00
2018-02-12T07:28:53.714Z,86.90
2018-02-12T07:31:20.133Z,86.80
2018-02-12T07:33:46.506Z,86.80
2018-02-12T07:36:12.871Z,86.80
2018-02-12T07:38:39.240Z,87.00
2018-02-12T07:41:05.621Z,87.10
2018-02-12T07:43:32.777Z,86.50
2018-02-12T07:45:59.144Z,86.50
2018-02-12T07:48:25.508Z,86.40
2018-02-12T07:50:51.879Z,86.20
2018-02-12T07:53:18.246Z,86.40
2018-02-12T07:55:44.609Z,86.80
2018-02-12T07:58:11.761Z,86.20
2018-02-12T08:00:38.857Z,86.70
2018-02-12T08:03:05.270Z,86.40
2018-02-12T08:05:31.656Z,86.40
2018-02-12T08:07:58.028Z,86.60
2018-02-12T08:10:24.386Z,86.30
2018-02-12T08:12:50.779Z,85.50
2018-02-12T08:15:17.890Z,85.50
2018-02-12T08:17:44.242Z,85.50
2018-02-12T08:20:10.641Z,85.40
2018-02-12T08:22:37.072Z,85.50
2018-02-12T08:25:03.434Z,85.60
2018-02-12T08:27:29.797Z,85.40
2018-02-12T08:29:56.909Z,85.40
2018-02-12T08:32:23.278Z,85.40
2018-02-12T08:34:49.639Z,85.60
2018-02-12T08:37:16.003Z,85.10
2018-02-12T08:39:42.377Z,84.50
2018-02-12T08:42:08.807Z,84.10
2018-02-12T08:44:35.174Z,84.60
2018-02-12T08:47:01.532Z,84.70
2018-02-12T08:49:27.930Z,85.00
2018-02-12T08:51:54.354Z,85.00
2018-02-12T08:54:20.727Z,84.60
2018-02-12T08:56:47.097Z,83.50
2018-02-12T08:59:13.459Z,83.70
2018-02-12T09:01:39.818Z,83.50
2018-02-12T09:04:06.187Z,83.00
2018-02-12T09:06:32.542Z,84.00
2018-02-12T09:08:58.968Z,84.30
2018-02-12T09:11:25.357Z,82.60
2018-02-12T09:13:52.484Z,82.90
2018-02-12T09:16:18.862Z,82.90
2018-02-12T09:18:45.246Z,82.50
2018-02-12T09:21:11.602Z,81.90
2018-02-12T09:23:38.729Z,82.00
2018-02-12T09:26:05.100Z,82.00
2018-02-12T09:28:32.742Z,81.00
2018-02-12T09:31:00.703Z,81.00
2018-02-12T09:33:27.067Z,81.00
2018-02-12T09:35:53.462Z,80.50
2018-02-12T09:38:19.810Z,80.20
2018-02-12T09:40:46.915Z,80.00
2018-02-12T09:43:13.351Z,80.00
2018-02-12T09:45:39.785Z,79.20
2018-02-12T09:48:06.288Z,77.50
2018-02-12T09:50:32.927Z,78.40
2018-02-12T09:52:59.406Z,78.20
2018-02-12T09:55:26.205Z,78.40
2018-02-12T09:57:53.622Z,79.20
2018-02-12T10:00:20.794Z,78.80
2018-02-12T10:02:47.224Z,78.30
2018-02-12T10:05:13.684Z,77.80
2018-02-12T10:07:40.090Z,77.70
2018-02-12T10:10:06.598Z,76.90
2018-02-12T10:12:33.774Z,76.60
2018-02-12T10:15:01.027Z,76.00
2018-02-12T10:17:28.321Z,75.90
2018-02-12T10:19:54.733Z,75.30
2018-02-12T10:22:21.124Z,75.60
2018-02-12T10:24:48.313Z,75.60
2018-02-12T10:27:14.744Z,75.70
2018-02-12T10:29:41.138Z,74.90
2018-02-12T10:32:07.540Z,74.50
2018-02-12T10:34:33.943Z,74.20
2018-02-12T10:37:00.385Z,73.60
2018-02-12T10:39:26.807Z,73.90
2018-02-12T10:41:53.236Z,74.10
2018-02-12T10:44:19.673Z,73.30
2018-02-12T10:46:46.101Z,74.30
2018-02-12T10:49:12.600Z,74.20
2018-02-12T10:51:40.773Z,71.10
2018-02-12T10:54:07.943Z,70.30
2018-02-12T10:56:35.111Z,69.70
2018-02-12T10:59:01.511Z,69.70
2018-02-12T11:01:29.163Z,66.20
2018-02-12T11:03:55.650Z,66.10
2018-02-12T11:06:22.060Z,66.90
2018-02-12T11:08:48.484Z,65.30
2018-02-12T11:11:15.783Z,65.10
2018-02-12T11:13:42.325Z,65.10
2018-02-12T11:16:08.762Z,63.20
2018-02-12T11:18:35.223Z,62.40
2018-02-12T11:21:01.636Z,62.70
2018-02-12T11:23:28.045Z,64.50
2018-02-12T11:25:54.458Z,64.10
2018-02-12T11:28:20.863Z,64.00
2018-02-12T11:30:48.037Z,67.60
2018-02-12T11:33:14.465Z,67.60
2018-02-12T11:35:40.822Z,67.80
2018-02-12T11:38:07.186Z,69.40
2018-02-12T11:40:33.550Z,68.90
2018-02-12T11:43:00.660Z,68.70
2018-02-12T11:45:27.006Z,68.70
2018-02-12T11:47:53.358Z,69.30
2018-02-12T11:50:20.450Z,70.40
2018-02-12T11:52:46.859Z,70.40
2018-02-12T11:55:13.219Z,69.90
2018-02-12T11:57:39.582Z,69.30
2018-02-12T12:00:06.013Z,70.20
2018-02-12T12:02:33.225Z,69.40
2018-02-12T12:04:59.629Z,69.40
2018-02-12T12:07:25.995Z,69.10
2018-02-12T12:09:52.344Z,67.30
2018-02-12T12:12:18.728Z,67.40
2018-02-12T12:14:45.086Z,68.40
2018-02-12T12:17:11.514Z,68.60
2018-02-12T12:19:37.925Z,68.00
2018-02-12T12:22:04.325Z,68.50
2018-02-12T12:24:30.811Z,67.60
2018-02-12T12:26:57.186Z,66.10
2018-02-12T12:29:23.570Z,66.50
2018-02-12T12:31:49.933Z,65.80
2018-02-12T12:34:16.312Z,64.10
2018-02-12T12:36:43.413Z,65.10
2018-02-12T12:39:09.796Z,65.10
2018-02-12T12:41:36.168Z,66.40
2018-02-12T12:44:02.522Z,64.40
2018-02-12T12:46:29.638Z,61.90
2018-02-12T12:48:56.036Z,61.80
2018-02-12T12:51:22.397Z,60.80
2018-02-12T12:53:48.778Z,61.90
2018-02-12T12:56:15.899Z,62.80
2018-02-12T12:58:42.255Z,62.80
2018-02-12T13:01:09.352Z,63.50
2018-02-12T13:03:35.715Z,63.40
2018-02-12T13:06:02.106Z,65.00
2018-02-12T13:08:28.459Z,62.40
2018-02-12T13:10:54.826Z,62.00
2018-02-12T13:13:21.202Z,61.40
2018-02-12T13:15:47.567Z,62.40
2018-02-12T13:18:13.948Z,63.40
2018-02-12T13:20:41.055Z,62.20
2018-02-12T13:23:07.420Z,62.20
2018-02-12T13:25:34.606Z,61.30
2018-02-12T13:28:01.102Z,61.30
2018-02-12T13:30:27.485Z,61.50
2018-02-12T13:32:53.842Z,61.50
2018-02-12T13:35:20.206Z,64.20
2018-02-12T13:37:47.323Z,66.40
2018-02-12T13:40:15.175Z,67.30
2018-02-12T13:42:41.535Z,67.30
2018-02-12T13:45:09.366Z,69.20
2018-02-12T13:47:35.743Z,69.20
2018-02-12T13:50:02.873Z,66.70
2018-02-12T13:52:29.969Z,65.30
2018-02-12T13:54:56.349Z,65.30
2018-02-12T13:57:24.195Z,64.40
2018-02-12T13:59:50.579Z,64.40
2018-02-12T14:02:17.718Z,65.10
2018-02-12T14:04:44.821Z,64.80
2018-02-12T14:07:11.187Z,64.80
2018-02-12T14:09:38.355Z,65.90
2018-02-12T14:12:05.459Z,68.90
2018-02-12T14:14:34.503Z,71.40
2018-02-12T14:17:00.869Z,71.40
2018-02-12T14:19:27.303Z,72.70
2018-02-12T14:21:53.670Z,74.40
2018-02-12T14:24:20.765Z,74.70
2018-02-12T14:26:48.070Z,74.80
2018-02-12T14:29:14.437Z,74.30
2018-02-12T14:31:40.799Z,74.10
2018-02-12T14:34:07.242Z,74.00
2018-02-12T14:36:33.606Z,74.70
2018-02-12T14:39:00.738Z,73.70
2018-02-12T14:41:27.150Z,73.70
2018-02-12T14:43:53.504Z,74.00
2018-02-12T14:46:19.878Z,74.00
2018-02-12T14:48:46.304Z,74.20
2018-02-12T14:51:12.657Z,74.10
2018-02-12T14:53:39.012Z,74.50
2018-02-12T14:56:05.377Z,73.70
2018-02-12T14:58:32.496Z,72.70
2018-02-12T15:00:58.851Z,72.60
2018-02-12T15:03:25.974Z,70.70
2018-02-12T15:05:52.330Z,70.60
2018-02-12T15:08:19.470Z,69.70
2018-02-12T15:10:45.834Z,69.70
2018-02-12T15:13:12.958Z,69.90
2018-02-12T15:15:39.330Z,69.80
2018-02-12T15:18:05.695Z,68.80
2018-02-12T15:20:32.061Z,67.40
2018-02-12T15:22:59.270Z,66.90
2018-02-12T15:25:25.661Z,66.80
2018-02-12T15:27:52.042Z,66.70
2018-02-12T15:30:31.716Z,65.50
2018-02-12T15:32:58.838Z,64.70
2018-02-12T15:35:25.208Z,64.70
2018-02-12T15:37:52.389Z,61.90
2018-02-12T15:40:18.766Z,62.50
2018-02-12T15:42:45.870Z,60.50
2018-02-12T15:45:12.248Z,60.40
2018-02-12T15:47:40.091Z,59.60
2018-02-12T15:50:06.542Z,59.60
2018-02-12T15:52:32.904Z,60.50
2018-02-12T15:55:00.042Z,59.40
2018-02-12T15:57:27.173Z,60.00
2018-02-12T15:59:53.580Z,60.00
2018-02-12T16:02:19.968Z,59.40
2018-02-12T16:04:47.085Z,58.00
2018-02-12T16:07:13.472Z,58.00
2018-02-12T16:09:39.849Z,58.90
2018-02-12T16:12:06.279Z,58.70
2018-02-12T16:14:32.655Z,58.80
2018-02-12T16:16:59.102Z,59.20
2018-02-12T16:19:25.495Z,59.40
2018-02-12T16:21:52.602Z,59.30
2018-02-12T16:24:19.004Z,59.30
2018-02-12T16:26:45.351Z,60.10
2018-02-12T16:29:11.711Z,60.40
2018-02-12T16:31:38.087Z,61.00
2018-02-12T16:34:04.517Z,62.00
2018-02-12T16:36:30.928Z,62.50
2018-02-12T16:38:58.067Z,64.00
2018-02-12T16:41:25.187Z,63.20
2018-02-12T16:43:51.556Z,63.20
2018-02-12T16:46:17.911Z,63.70
2018-02-12T16:48:45.010Z,64.50
2018-02-12T16:51:11.400Z,64.50
2018-02-12T16:53:37.806Z,64.70
2018-02-12T16:56:04.240Z,65.20
2018-02-12T16:58:31.366Z,65.90
2018-02-12T17:00:57.742Z,65.40
2018-02-12T17:03:24.834Z,66.00
2018-02-12T17:05:51.198Z,66.00
2018-02-12T17:08:18.353Z,67.30
2018-02-12T17:10:44.688Z,67.30
2018-02-12T17:13:11.805Z,68.90
2018-02-12T17:15:38.182Z,68.80
2018-02-12T17:18:04.548Z,68.80
2018-02-12T17:20:30.919Z,69.30
2018-02-12T17:22:58.024Z,68.90
2018-02-12T17:25:24.399Z,69.40
2018-02-12T17:27:50.765Z,69.30
2018-02-12T17:30:17.130Z,70.50
2018-02-12T17:32:44.402Z,69.90
2018-02-12T17:35:10.768Z,69.50
2018-02-12T17:37:37.866Z,69.40
2018-02-12T17:40:04.311Z,69.30
2018-02-12T17:42:31.617Z,69.50
2018-02-12T17:44:58.018Z,69.50
2018-02-12T17:47:25.137Z,70.30
2018-02-12T17:49:51.509Z,70.30
2018-02-12T17:52:18.657Z,71.10
2018-02-12T17:54:45.761Z,70.60
2018-02-12T17:57:12.149Z,70.50
2018-02-12T17:59:38.683Z,71.10
2018-02-12T18:02:05.069Z,71.30
2018-02-12T18:04:31.436Z,71.70
2018-02-12T18:06:58.546Z,71.50
2018-02-12T18:09:24.912Z,71.40
2018-02-12T18:11:51.303Z,71.50
2018-02-12T18:14:17.695Z,71.40
2018-02-12T18:16:44.090Z,71.10
2018-02-12T18:19:11.921Z,71.20
2018-02-12T18:21:38.274Z,71.20
2018-02-12T18:24:04.637Z,71.10
2018-02-12T18:26:31.082Z,71.20
2018-02-12T18:28:57.454Z,71.40
2018-02-12T18:31:23.824Z,71.60
2018-02-12T18:33:50.943Z,72.70
2018-02-12T18:36:17.332Z,72.60
2018-02-12T18:38:43.807Z,72.90
2018-02-12T18:41:10.204Z,72.80
2018-02-12T18:43:36.631Z,72.50
2018-02-12T18:46:03.061Z,73.10
2018-02-12T18:48:29.488Z,73.20
2018-02-12T18:50:55.865Z,73.50
2018-02-12T18:53:23.076Z,73.30
2018-02-12T18:55:49.458Z,73.30
2018-02-12T18:58:15.837Z,73.70
2018-02-12T19:00:42.225Z,73.70
2018-02-12T19:03:10.140Z,73.50
2018-02-12T19:05:36.513Z,73.40
2018-02-12T19:08:02.908Z,73.80
2018-02-12T19:10:29.265Z,73.80
2018-02-12T19:12:55.628Z,74.00
2018-02-12T19:15:21.994Z,74.10
2018-02-12T19:17:48.376Z,74.00
2018-02-12T19:20:14.736Z,73.40
2018-02-12T19:22:41.849Z,73.50
2018-02-12T19:25:08.235Z,73.70
2018-02-12T19:27:35.336Z,73.20
2018-02-12T19:30:01.701Z,73.10
2018-02-12T19:32:28.815Z,75.30
2018-02-12T19:34:56.213Z,75.20
2018-02-12T19:37:23.325Z,74.70
2018-02-12T19:39:49.702Z,74.60
2018-02-12T19:42:16.916Z,74.90
2018-02-12T19:44:43.276Z,74.40
2018-02-12T19:47:10.390Z,74.50
2018-02-12T19:49:38.386Z,74.80
2018-02-12T19:52:05.532Z,74.60
2018-02-12T19:54:32.623Z,75.20
2018-02-12T19:56:58.979Z,75.80
2018-02-12T19:59:25.723Z,75.30
2018-02-12T20:01:52.078Z,75.20
2018-02-12T20:04:19.254Z,75.50
2018-02-12T20:06:45.619Z,75.40
2018-02-12T20:09:12.034Z,76.30
2018-02-12T20:11:38.410Z,76.00
2018-02-12T20:14:04.774Z,75.90
2018-02-12T20:16:31.953Z,76.40
2018-02-12T20:18:58.319Z,76.40
2018-02-12T20:21:24.694Z,77.00
2018-02-12T20:23:51.067Z,77.20
2018-02-12T20:26:17.457Z,77.40
2018-02-12T20:28:43.833Z,77.30
2018-02-12T20:31:10.197Z,77.40
2018-02-12T20:33:37.304Z,78.40
2018-02-12T20:36:03.671Z,78.40
2018-02-12T20:38:30.017Z,78.50
2018-02-12T20:40:57.108Z,78.30
2018-02-12T20:43:23.475Z,78.20
2018-02-12T20:45:50.590Z,78.10
2018-02-12T20:48:16.981Z,78.00
2018-02-12T20:50:43.399Z,78.70
2018-02-12T20:53:09.875Z,78.30
2018-02-12T20:55:36.252Z,78.60
2018-02-12T20:58:02.639Z,78.60
2018-02-12T21:00:29.080Z,79.40
2018-02-12T21:02:55.447Z,78.70
2018-02-12T21:05:21.805Z,79.70
2018-02-12T21:07:48.353Z,78.90
2018-02-12T21:10:14.755Z,78.80
2018-02-12T21:12:41.161Z,79.20
2018-02-12T21:15:07.541Z,79.30
2018-02-12T21:17:34.718Z,78.70
2018-02-12T21:20:01.041Z,78.70
2018-02-12T21:22:27.396Z,78.60
2018-02-12T21:24:53.752Z,79.20
2018-02-12T21:27:21.576Z,78.90
2018-02-12T21:29:47.946Z,78.80
2018-02-12T21:32:14.301Z,79.20
2018-02-12T21:34:41.404Z,78.30
2018-02-12T21:37:07.767Z,78.30
2018-02-12T21:39:34.871Z,78.40
2018-02-12T21:42:01.244Z,78.30
2018-02-12T21:44:28.007Z,78.30
2018-02-12T21:46:54.566Z,78.60
2018-02-12T21:49:20.927Z,78.30
2018-02-12T21:51:47.283Z,78.20
2018-02-12T21:54:14.410Z,77.90
2018-02-12T21:56:40.861Z,77.80
2018-02-12T21:59:07.375Z,78.80
2018-02-12T22:01:33.770Z,78.70
2018-02-12T22:04:00.159Z,78.70
2018-02-12T22:06:27.259Z,78.50
2018-02-12T22:08:53.617Z,78.50
2018-02-12T22:11:19.969Z,78.60
2018-02-12T22:13:46.331Z,78.60
2018-02-12T22:16:12.761Z,78.40
2018-02-12T22:18:39.857Z,78.90
2018-02-12T22:21:06.247Z,78.90
2018-02-12T22:23:32.609Z,78.80
2018-02-12T22:25:58.953Z,78.80
2018-02-12T22:28:25.311Z,78.60
2018-02-12T22:30:53.160Z,78.80
2018-02-12T22:33:19.513Z,78.80
2018-02-12T22:35:46.618Z,78.60
2018-02-12T22:38:12.959Z,78.60
2018-02-12T22:40:39.333Z,78.60
2018-02-12T22:43:06.430Z,78.50
2018-02-12T22:45:32.798Z,78.50
2018-02-12T22:47:59.161Z,78.80
2018-02-12T22:50:25.517Z,78.90
2018-02-12T22:52:51.871Z,78.90
2018-02-12T22:55:18.231Z,78.90
2018-02-12T22:57:44.586Z,78.70
2018-02-12T23:00:11.002Z,78.90
2018-02-12T23:02:38.105Z,79.30
2018-02-12T23:05:04.471Z,79.30
2018-02-12T23:07:30.834Z,79.10
2018-02-12T23:09:57.191Z,78.80
2018-02-12T23:12:23.618Z,79.30
2018-02-12T23:14:50.021Z,79.00
2018-02-12T23:17:19.128Z,79.60
2018-02-12T23:19:45.486Z,79.60
2018-02-12T23:22:11.944Z,79.80
2018-02-12T23:24:38.338Z,79.70
2018-02-12T23:27:04.715Z,80.20
2018-02-12T23:29:31.806Z,79.50
2018-02-12T23:31:58.182Z,79.40
2018-02-12T23:34:25.286Z,80.10
2018-02-12T23:36:51.663Z,80.10
2018-02-12T23:39:18.034Z,79.80
2018-02-12T23:41:45.135Z,80.70
2018-02-12T23:44:11.490Z,80.70
2018-02-12T23:46:38.605Z,80.90
2018-02-12T23:49:04.972Z,80.80
2018-02-12T23:51:31.325Z,81.00
2018-02-12T23:53:57.703Z,80.80
2018-02-12T23:56:24.067Z,80.80
2018-02-12T23:58:51.190Z,81.10
